sensor_id;sensor_type;location;lat;lon;timestamp;P1;durP1;ratioP1;P2;durP2;ratioP2
26080;SDS011;13991;51.174;4.438;2022-12-11T00:02:27;39.33;;;17.47;;
26080;SDS011;13991;51.174;4.438;2022-12-11T00:04:53;39.20;;;15.97;;
26080;SDS011;13991;51.174;4.438;2022-12-11T00:07:19;36.97;;;17.00;;
26080;SDS011;13991;51.174;4.438;2022-12-11T00:09:44;38.43;;;16.70;;
26080;SDS011;13991;51.174;4.438;2022-12-11T00:12:10;40.83;;;16.83;;
26080;SDS011;13991;51.174;4.438;2022-12-11T00:14:36;40.23;;;17.83;;
26080;SDS011;13991;51.174;4.438;2022-12-11T00:17:01;40.40;;;16.20;;
26080;SDS011;13991;51.174;4.438;2022-12-11T00:19:27;41.97;;;17.17;;
26080;SDS011;13991;51.174;4.438;2022-12-11T00:21:53;47.30;;;19.47;;
26080;SDS011;13991;51.174;4.438;2022-12-11T00:24:18;39.87;;;16.80;;
26080;SDS011;13991;51.174;4.438;2022-12-11T00:26:44;37.53;;;16.90;;
26080;SDS011;13991;51.174;4.438;2022-12-11T00:29:10;46.93;;;18.43;;
26080;SDS011;13991;51.174;4.438;2022-12-11T00:31:39;45.47;;;17.97;;
26080;SDS011;13991;51.174;4.438;2022-12-11T00:34:05;46.13;;;18.63;;
26080;SDS011;13991;51.174;4.438;2022-12-11T00:36:31;50.23;;;17.70;;
26080;SDS011;13991;51.174;4.438;2022-12-11T00:38:57;42.53;;;16.80;;
26080;SDS011;13991;51.174;4.438;2022-12-11T00:41:22;41.50;;;18.13;;
26080;SDS011;13991;51.174;4.438;2022-12-11T00:43:48;46.27;;;18.30;;
26080;SDS011;13991;51.174;4.438;2022-12-11T00:46:14;41.43;;;16.03;;
26080;SDS011;13991;51.174;4.438;2022-12-11T00:48:40;39.10;;;16.50;;
26080;SDS011;13991;51.174;4.438;2022-12-11T00:51:06;41.07;;;17.37;;
26080;SDS011;13991;51.174;4.438;2022-12-11T00:53:33;42.20;;;17.10;;
26080;SDS011;13991;51.174;4.438;2022-12-11T00:55:58;38.40;;;16.47;;
26080;SDS011;13991;51.174;4.438;2022-12-11T00:58:24;40.33;;;17.67;;
26080;SDS011;13991;51.174;4.438;2022-12-11T01:00:50;38.07;;;16.00;;
26080;SDS011;13991;51.174;4.438;2022-12-11T01:03:16;35.30;;;16.13;;
26080;SDS011;13991;51.174;4.438;2022-12-11T01:05:49;41.93;;;15.97;;
26080;SDS011;13991;51.174;4.438;2022-12-11T01:08:16;37.87;;;14.97;;
26080;SDS011;13991;51.174;4.438;2022-12-11T01:10:42;39.03;;;15.73;;
26080;SDS011;13991;51.174;4.438;2022-12-11T01:13:09;35.10;;;14.83;;
26080;SDS011;13991;51.174;4.438;2022-12-11T01:15:39;39.53;;;16.07;;
26080;SDS011;13991;51.174;4.438;2022-12-11T01:18:07;35.80;;;14.53;;
26080;SDS011;13991;51.174;4.438;2022-12-11T01:20:33;39.93;;;15.03;;
26080;SDS011;13991;51.174;4.438;2022-12-11T01:23:01;37.40;;;15.03;;
26080;SDS011;13991;51.174;4.438;2022-12-11T01:25:27;38.10;;;15.73;;
26080;SDS011;13991;51.174;4.438;2022-12-11T01:27:53;35.43;;;15.07;;
26080;SDS011;13991;51.174;4.438;2022-12-11T01:30:20;33.33;;;14.60;;
26080;SDS011;13991;51.174;4.438;2022-12-11T01:32:48;36.40;;;14.33;;
26080;SDS011;13991;51.174;4.438;2022-12-11T01:35:14;34.57;;;15.27;;
26080;SDS011;13991;51.174;4.438;2022-12-11T01:37:41;42.13;;;16.53;;
26080;SDS011;13991;51.174;4.438;2022-12-11T01:40:07;38.20;;;15.20;;
26080;SDS011;13991;51.174;4.438;2022-12-11T01:42:33;41.23;;;15.60;;
26080;SDS011;13991;51.174;4.438;2022-12-11T01:45:21;37.87;;;15.80;;
26080;SDS011;13991;51.174;4.438;2022-12-11T01:48:03;36.17;;;14.40;;
26080;SDS011;13991;51.174;4.438;2022-12-11T01:50:33;35.33;;;13.67;;
26080;SDS011;13991;51.174;4.438;2022-12-11T01:53:14;38.70;;;14.77;;
26080;SDS011;13991;51.174;4.438;2022-12-11T01:55:43;36.30;;;15.97;;
26080;SDS011;13991;51.174;4.438;2022-12-11T01:58:11;39.57;;;14.57;;
26080;SDS011;13991;51.174;4.438;2022-12-11T02:00:37;34.87;;;15.27;;
26080;SDS011;13991;51.174;4.438;2022-12-11T02:03:03;41.63;;;16.53;;
26080;SDS011;13991;51.174;4.438;2022-12-11T02:05:28;35.23;;;15.73;;
26080;SDS011;13991;51.174;4.438;2022-12-11T02:07:55;33.73;;;15.23;;
26080;SDS011;13991;51.174;4.438;2022-12-11T02:10:23;36.10;;;15.07;;
26080;SDS011;13991;51.174;4.438;2022-12-11T02:13:05;37.70;;;14.50;;
26080;SDS011;13991;51.174;4.438;2022-12-11T02:15:40;35.93;;;14.73;;
26080;SDS011;13991;51.174;4.438;2022-12-11T02:18:34;38.87;;;14.33;;
26080;SDS011;13991;51.174;4.438;2022-12-11T02:21:25;39.47;;;13.70;;
26080;SDS011;13991;51.174;4.438;2022-12-11T02:29:02;42.57;;;14.80;;
26080;SDS011;13991;51.174;4.438;2022-12-11T02:31:57;38.27;;;15.23;;
26080;SDS011;13991;51.174;4.438;2022-12-11T02:35:12;40.47;;;15.27;;
26080;SDS011;13991;51.174;4.438;2022-12-11T02:37:23;44.90;;;15.23;;
26080;SDS011;13991;51.174;4.438;2022-12-11T02:39:53;35.87;;;15.07;;
26080;SDS011;13991;51.174;4.438;2022-12-11T02:42:21;41.37;;;16.17;;
26080;SDS011;13991;51.174;4.438;2022-12-11T02:44:50;36.13;;;14.87;;
26080;SDS011;13991;51.174;4.438;2022-12-11T02:47:18;40.60;;;15.80;;
26080;SDS011;13991;51.174;4.438;2022-12-11T02:49:45;40.10;;;16.43;;
26080;SDS011;13991;51.174;4.438;2022-12-11T02:52:14;41.87;;;16.53;;
26080;SDS011;13991;51.174;4.438;2022-12-11T02:54:44;37.30;;;15.70;;
26080;SDS011;13991;51.174;4.438;2022-12-11T02:57:13;40.40;;;15.67;;
26080;SDS011;13991;51.174;4.438;2022-12-11T03:00:04;34.93;;;14.50;;
26080;SDS011;13991;51.174;4.438;2022-12-11T03:02:31;37.50;;;14.57;;
26080;SDS011;13991;51.174;4.438;2022-12-11T03:04:57;40.07;;;16.30;;
26080;SDS011;13991;51.174;4.438;2022-12-11T03:07:25;42.53;;;16.10;;
26080;SDS011;13991;51.174;4.438;2022-12-11T03:09:54;42.13;;;15.70;;
26080;SDS011;13991;51.174;4.438;2022-12-11T03:12:21;38.73;;;15.70;;
26080;SDS011;13991;51.174;4.438;2022-12-11T03:14:53;41.23;;;15.17;;
26080;SDS011;13991;51.174;4.438;2022-12-11T03:17:22;40.87;;;15.33;;
26080;SDS011;13991;51.174;4.438;2022-12-11T03:19:59;41.20;;;15.87;;
26080;SDS011;13991;51.174;4.438;2022-12-11T03:25:27;37.47;;;16.17;;
26080;SDS011;13991;51.174;4.438;2022-12-11T03:28:13;40.67;;;16.07;;
26080;SDS011;13991;51.174;4.438;2022-12-11T03:30:43;39.17;;;15.83;;
26080;SDS011;13991;51.174;4.438;2022-12-11T03:33:14;44.03;;;17.47;;
26080;SDS011;13991;51.174;4.438;2022-12-11T03:36:12;40.13;;;15.43;;
26080;SDS011;13991;51.174;4.438;2022-12-11T03:38:45;38.53;;;16.43;;
26080;SDS011;13991;51.174;4.438;2022-12-11T03:41:14;39.20;;;16.07;;
26080;SDS011;13991;51.174;4.438;2022-12-11T03:43:42;38.77;;;16.33;;
26080;SDS011;13991;51.174;4.438;2022-12-11T03:46:09;45.07;;;17.17;;
26080;SDS011;13991;51.174;4.438;2022-12-11T03:48:37;39.60;;;16.50;;
26080;SDS011;13991;51.174;4.438;2022-12-11T03:51:06;46.70;;;16.70;;
26080;SDS011;13991;51.174;4.438;2022-12-11T03:53:35;46.40;;;18.30;;
26080;SDS011;13991;51.174;4.438;2022-12-11T03:56:05;40.00;;;15.83;;
26080;SDS011;13991;51.174;4.438;2022-12-11T03:58:34;46.17;;;17.27;;
26080;SDS011;13991;51.174;4.438;2022-12-11T04:00:59;50.07;;;18.23;;
26080;SDS011;13991;51.174;4.438;2022-12-11T04:03:25;46.37;;;17.13;;
26080;SDS011;13991;51.174;4.438;2022-12-11T04:05:52;43.83;;;16.83;;
26080;SDS011;13991;51.174;4.438;2022-12-11T04:08:19;38.77;;;17.27;;
26080;SDS011;13991;51.174;4.438;2022-12-11T04:10:46;44.10;;;18.40;;
26080;SDS011;13991;51.174;4.438;2022-12-11T04:13:12;42.43;;;17.13;;
26080;SDS011;13991;51.174;4.438;2022-12-11T04:15:38;52.33;;;18.17;;
26080;SDS011;13991;51.174;4.438;2022-12-11T04:18:05;41.67;;;17.87;;
26080;SDS011;13991;51.174;4.438;2022-12-11T04:20:53;41.97;;;17.50;;
26080;SDS011;13991;51.174;4.438;2022-12-11T04:23:38;42.40;;;17.40;;
26080;SDS011;13991;51.174;4.438;2022-12-11T04:26:22;42.10;;;17.73;;
26080;SDS011;13991;51.174;4.438;2022-12-11T04:28:49;43.80;;;17.57;;
26080;SDS011;13991;51.174;4.438;2022-12-11T04:31:19;48.43;;;18.27;;
26080;SDS011;13991;51.174;4.438;2022-12-11T04:33:46;43.20;;;17.20;;
26080;SDS011;13991;51.174;4.438;2022-12-11T04:36:12;42.00;;;17.60;;
26080;SDS011;13991;51.174;4.438;2022-12-11T04:38:38;46.53;;;19.17;;
26080;SDS011;13991;51.174;4.438;2022-12-11T04:41:11;40.40;;;17.67;;
26080;SDS011;13991;51.174;4.438;2022-12-11T04:43:38;48.47;;;18.83;;
26080;SDS011;13991;51.174;4.438;2022-12-11T04:48:31;48.40;;;19.10;;
26080;SDS011;13991;51.174;4.438;2022-12-11T04:50:58;53.63;;;19.50;;
26080;SDS011;13991;51.174;4.438;2022-12-11T04:53:23;47.77;;;20.07;;
26080;SDS011;13991;51.174;4.438;2022-12-11T04:55:49;48.53;;;19.57;;
26080;SDS011;13991;51.174;4.438;2022-12-11T04:58:15;43.83;;;18.97;;
26080;SDS011;13991;51.174;4.438;2022-12-11T05:00:41;53.27;;;20.50;;
26080;SDS011;13991;51.174;4.438;2022-12-11T05:03:07;53.20;;;19.97;;
26080;SDS011;13991;51.174;4.438;2022-12-11T05:05:33;49.50;;;20.10;;
26080;SDS011;13991;51.174;4.438;2022-12-11T05:07:58;54.27;;;20.30;;
26080;SDS011;13991;51.174;4.438;2022-12-11T05:10:24;46.40;;;19.67;;
26080;SDS011;13991;51.174;4.438;2022-12-11T05:12:50;48.47;;;18.97;;
26080;SDS011;13991;51.174;4.438;2022-12-11T05:15:15;48.00;;;20.87;;
26080;SDS011;13991;51.174;4.438;2022-12-11T05:17:41;52.70;;;20.03;;
26080;SDS011;13991;51.174;4.438;2022-12-11T05:20:07;49.10;;;20.03;;
26080;SDS011;13991;51.174;4.438;2022-12-11T05:22:34;51.37;;;19.30;;
26080;SDS011;13991;51.174;4.438;2022-12-11T05:25:00;47.43;;;19.63;;
26080;SDS011;13991;51.174;4.438;2022-12-11T05:27:26;51.57;;;20.87;;
26080;SDS011;13991;51.174;4.438;2022-12-11T05:29:52;50.93;;;20.63;;
26080;SDS011;13991;51.174;4.438;2022-12-11T05:32:17;57.97;;;21.23;;
26080;SDS011;13991;51.174;4.438;2022-12-11T05:34:43;50.27;;;19.97;;
26080;SDS011;13991;51.174;4.438;2022-12-11T05:37:09;55.57;;;21.13;;
26080;SDS011;13991;51.174;4.438;2022-12-11T05:39:34;51.03;;;19.63;;
26080;SDS011;13991;51.174;4.438;2022-12-11T05:42:01;50.40;;;19.60;;
26080;SDS011;13991;51.174;4.438;2022-12-11T05:44:26;50.90;;;20.13;;
26080;SDS011;13991;51.174;4.438;2022-12-11T05:46:52;48.43;;;18.83;;
26080;SDS011;13991;51.174;4.438;2022-12-11T05:49:18;50.13;;;20.73;;
26080;SDS011;13991;51.174;4.438;2022-12-11T05:51:43;50.10;;;20.50;;
26080;SDS011;13991;51.174;4.438;2022-12-11T05:54:09;50.10;;;20.03;;
26080;SDS011;13991;51.174;4.438;2022-12-11T05:56:35;54.27;;;21.27;;
26080;SDS011;13991;51.174;4.438;2022-12-11T05:59:03;55.70;;;20.43;;
26080;SDS011;13991;51.174;4.438;2022-12-11T06:01:30;50.90;;;19.83;;
26080;SDS011;13991;51.174;4.438;2022-12-11T06:04:01;51.40;;;21.00;;
26080;SDS011;13991;51.174;4.438;2022-12-11T06:06:27;44.63;;;19.87;;
26080;SDS011;13991;51.174;4.438;2022-12-11T06:08:53;50.37;;;21.03;;
26080;SDS011;13991;51.174;4.438;2022-12-11T06:11:21;52.07;;;20.90;;
26080;SDS011;13991;51.174;4.438;2022-12-11T06:13:47;52.10;;;21.80;;
26080;SDS011;13991;51.174;4.438;2022-12-11T06:16:13;60.07;;;21.17;;
26080;SDS011;13991;51.174;4.438;2022-12-11T06:18:40;54.73;;;22.47;;
26080;SDS011;13991;51.174;4.438;2022-12-11T06:21:11;54.90;;;21.87;;
26080;SDS011;13991;51.174;4.438;2022-12-11T06:23:37;54.10;;;21.50;;
26080;SDS011;13991;51.174;4.438;2022-12-11T06:26:03;53.93;;;21.37;;
26080;SDS011;13991;51.174;4.438;2022-12-11T06:28:29;56.83;;;23.37;;
26080;SDS011;13991;51.174;4.438;2022-12-11T06:30:57;55.00;;;22.50;;
26080;SDS011;13991;51.174;4.438;2022-12-11T06:33:23;55.13;;;20.93;;
26080;SDS011;13991;51.174;4.438;2022-12-11T06:35:49;63.33;;;23.27;;
26080;SDS011;13991;51.174;4.438;2022-12-11T06:38:15;57.57;;;23.17;;
26080;SDS011;13991;51.174;4.438;2022-12-11T06:40:41;52.97;;;21.77;;
26080;SDS011;13991;51.174;4.438;2022-12-11T06:43:07;59.13;;;21.87;;
26080;SDS011;13991;51.174;4.438;2022-12-11T06:45:32;66.07;;;24.90;;
26080;SDS011;13991;51.174;4.438;2022-12-11T06:47:58;66.63;;;25.27;;
26080;SDS011;13991;51.174;4.438;2022-12-11T06:50:24;68.17;;;23.47;;
26080;SDS011;13991;51.174;4.438;2022-12-11T06:52:54;59.77;;;21.87;;
26080;SDS011;13991;51.174;4.438;2022-12-11T06:55:20;69.80;;;24.07;;
26080;SDS011;13991;51.174;4.438;2022-12-11T06:57:46;70.60;;;25.93;;
26080;SDS011;13991;51.174;4.438;2022-12-11T07:00:12;61.03;;;23.00;;
26080;SDS011;13991;51.174;4.438;2022-12-11T07:02:39;66.37;;;25.20;;
26080;SDS011;13991;51.174;4.438;2022-12-11T07:05:05;63.73;;;25.20;;
26080;SDS011;13991;51.174;4.438;2022-12-11T07:07:31;64.17;;;23.70;;
26080;SDS011;13991;51.174;4.438;2022-12-11T07:09:57;63.87;;;25.70;;
26080;SDS011;13991;51.174;4.438;2022-12-11T07:12:23;61.60;;;24.47;;
26080;SDS011;13991;51.174;4.438;2022-12-11T07:14:48;63.10;;;24.27;;
26080;SDS011;13991;51.174;4.438;2022-12-11T07:17:14;62.00;;;24.20;;
26080;SDS011;13991;51.174;4.438;2022-12-11T07:19:40;66.97;;;24.10;;
26080;SDS011;13991;51.174;4.438;2022-12-11T07:22:06;64.73;;;23.77;;
26080;SDS011;13991;51.174;4.438;2022-12-11T07:24:31;70.40;;;23.90;;
26080;SDS011;13991;51.174;4.438;2022-12-11T07:26:57;63.43;;;24.40;;
26080;SDS011;13991;51.174;4.438;2022-12-11T07:29:23;67.60;;;24.70;;
26080;SDS011;13991;51.174;4.438;2022-12-11T07:31:48;64.10;;;24.37;;
26080;SDS011;13991;51.174;4.438;2022-12-11T07:34:15;62.63;;;24.40;;
26080;SDS011;13991;51.174;4.438;2022-12-11T07:36:41;70.90;;;24.83;;
26080;SDS011;13991;51.174;4.438;2022-12-11T07:39:07;67.53;;;25.20;;
26080;SDS011;13991;51.174;4.438;2022-12-11T07:41:35;66.30;;;22.83;;
26080;SDS011;13991;51.174;4.438;2022-12-11T07:44:01;70.10;;;24.27;;
26080;SDS011;13991;51.174;4.438;2022-12-11T07:46:28;68.13;;;24.57;;
26080;SDS011;13991;51.174;4.438;2022-12-11T07:48:55;65.33;;;22.87;;
26080;SDS011;13991;51.174;4.438;2022-12-11T07:51:22;70.67;;;25.13;;
26080;SDS011;13991;51.174;4.438;2022-12-11T07:53:52;68.50;;;24.83;;
26080;SDS011;13991;51.174;4.438;2022-12-11T07:56:20;70.87;;;25.60;;
26080;SDS011;13991;51.174;4.438;2022-12-11T07:58:46;75.17;;;27.77;;
26080;SDS011;13991;51.174;4.438;2022-12-11T08:01:19;75.57;;;26.73;;
26080;SDS011;13991;51.174;4.438;2022-12-11T08:03:46;76.73;;;27.07;;
26080;SDS011;13991;51.174;4.438;2022-12-11T08:06:12;82.17;;;26.00;;
26080;SDS011;13991;51.174;4.438;2022-12-11T08:08:39;71.67;;;25.43;;
26080;SDS011;13991;51.174;4.438;2022-12-11T08:11:06;74.00;;;26.77;;
26080;SDS011;13991;51.174;4.438;2022-12-11T08:13:34;82.23;;;26.00;;
26080;SDS011;13991;51.174;4.438;2022-12-11T08:16:04;71.50;;;27.23;;
26080;SDS011;13991;51.174;4.438;2022-12-11T08:18:31;69.20;;;26.03;;
26080;SDS011;13991;51.174;4.438;2022-12-11T08:20:58;70.00;;;25.70;;
26080;SDS011;13991;51.174;4.438;2022-12-11T08:23:28;69.97;;;25.30;;
26080;SDS011;13991;51.174;4.438;2022-12-11T08:25:54;71.37;;;25.63;;
26080;SDS011;13991;51.174;4.438;2022-12-11T08:28:19;71.70;;;25.60;;
26080;SDS011;13991;51.174;4.438;2022-12-11T08:30:45;73.27;;;26.07;;
26080;SDS011;13991;51.174;4.438;2022-12-11T08:33:10;74.03;;;25.20;;
26080;SDS011;13991;51.174;4.438;2022-12-11T08:35:39;64.40;;;24.60;;
26080;SDS011;13991;51.174;4.438;2022-12-11T08:38:05;69.33;;;25.03;;
26080;SDS011;13991;51.174;4.438;2022-12-11T08:40:31;61.97;;;23.13;;
26080;SDS011;13991;51.174;4.438;2022-12-11T08:42:56;72.63;;;24.27;;
26080;SDS011;13991;51.174;4.438;2022-12-11T08:45:22;62.27;;;23.33;;
26080;SDS011;13991;51.174;4.438;2022-12-11T08:47:48;70.33;;;24.97;;
26080;SDS011;13991;51.174;4.438;2022-12-11T08:50:13;69.90;;;24.73;;
26080;SDS011;13991;51.174;4.438;2022-12-11T08:52:39;58.03;;;22.47;;
26080;SDS011;13991;51.174;4.438;2022-12-11T08:55:05;63.87;;;23.77;;
26080;SDS011;13991;51.174;4.438;2022-12-11T08:57:31;68.67;;;24.73;;
26080;SDS011;13991;51.174;4.438;2022-12-11T08:59:56;67.27;;;24.70;;
26080;SDS011;13991;51.174;4.438;2022-12-11T09:02:22;63.60;;;23.13;;
26080;SDS011;13991;51.174;4.438;2022-12-11T09:04:47;67.63;;;23.07;;
26080;SDS011;13991;51.174;4.438;2022-12-11T09:07:13;61.30;;;21.43;;
26080;SDS011;13991;51.174;4.438;2022-12-11T09:09:39;56.97;;;21.63;;
26080;SDS011;13991;51.174;4.438;2022-12-11T09:12:04;67.10;;;23.50;;
26080;SDS011;13991;51.174;4.438;2022-12-11T09:14:30;59.20;;;22.30;;
26080;SDS011;13991;51.174;4.438;2022-12-11T09:16:56;57.50;;;22.40;;
26080;SDS011;13991;51.174;4.438;2022-12-11T09:19:21;62.77;;;21.97;;
26080;SDS011;13991;51.174;4.438;2022-12-11T09:21:47;61.67;;;22.20;;
26080;SDS011;13991;51.174;4.438;2022-12-11T09:24:13;64.23;;;22.20;;
26080;SDS011;13991;51.174;4.438;2022-12-11T09:26:39;69.17;;;23.30;;
26080;SDS011;13991;51.174;4.438;2022-12-11T09:29:06;71.43;;;22.63;;
26080;SDS011;13991;51.174;4.438;2022-12-11T09:31:32;60.67;;;22.40;;
26080;SDS011;13991;51.174;4.438;2022-12-11T09:34:00;62.53;;;22.07;;
26080;SDS011;13991;51.174;4.438;2022-12-11T09:36:28;60.67;;;21.57;;
26080;SDS011;13991;51.174;4.438;2022-12-11T09:38:54;59.70;;;22.47;;
26080;SDS011;13991;51.174;4.438;2022-12-11T09:41:37;62.47;;;23.43;;
26080;SDS011;13991;51.174;4.438;2022-12-11T09:44:18;65.03;;;23.80;;
26080;SDS011;13991;51.174;4.438;2022-12-11T09:47:00;62.10;;;22.23;;
26080;SDS011;13991;51.174;4.438;2022-12-11T09:49:33;60.83;;;21.20;;
26080;SDS011;13991;51.174;4.438;2022-12-11T09:54:56;64.27;;;21.87;;
26080;SDS011;13991;51.174;4.438;2022-12-11T10:14:00;67.40;;;21.90;;
26080;SDS011;13991;51.174;4.438;2022-12-11T10:16:46;63.53;;;21.53;;
26080;SDS011;13991;51.174;4.438;2022-12-11T10:19:17;60.03;;;21.43;;
26080;SDS011;13991;51.174;4.438;2022-12-11T10:21:51;71.13;;;22.27;;
26080;SDS011;13991;51.174;4.438;2022-12-11T10:27:30;57.23;;;19.83;;
26080;SDS011;13991;51.174;4.438;2022-12-11T10:30:00;70.23;;;21.60;;
26080;SDS011;13991;51.174;4.438;2022-12-11T10:32:39;62.10;;;21.57;;
26080;SDS011;13991;51.174;4.438;2022-12-11T10:35:25;60.00;;;21.20;;
26080;SDS011;13991;51.174;4.438;2022-12-11T10:37:57;64.10;;;21.63;;
26080;SDS011;13991;51.174;4.438;2022-12-11T10:40:35;60.97;;;21.30;;
26080;SDS011;13991;51.174;4.438;2022-12-11T10:43:04;60.00;;;20.43;;
26080;SDS011;13991;51.174;4.438;2022-12-11T10:45:29;55.53;;;21.27;;
26080;SDS011;13991;51.174;4.438;2022-12-11T10:50:58;62.87;;;21.57;;
26080;SDS011;13991;51.174;4.438;2022-12-11T10:53:27;61.40;;;20.93;;
26080;SDS011;13991;51.174;4.438;2022-12-11T10:55:54;55.90;;;20.00;;
26080;SDS011;13991;51.174;4.438;2022-12-11T10:58:23;53.40;;;20.77;;
26080;SDS011;13991;51.174;4.438;2022-12-11T11:01:02;60.93;;;21.33;;
26080;SDS011;13991;51.174;4.438;2022-12-11T11:03:32;59.87;;;21.87;;
26080;SDS011;13991;51.174;4.438;2022-12-11T11:06:03;54.23;;;21.10;;
26080;SDS011;13991;51.174;4.438;2022-12-11T11:08:41;55.13;;;21.27;;
26080;SDS011;13991;51.174;4.438;2022-12-11T11:11:20;58.33;;;21.73;;
26080;SDS011;13991;51.174;4.438;2022-12-11T11:13:49;54.20;;;20.43;;
26080;SDS011;13991;51.174;4.438;2022-12-11T11:16:16;53.43;;;20.40;;
26080;SDS011;13991;51.174;4.438;2022-12-11T11:18:51;50.57;;;19.23;;
26080;SDS011;13991;51.174;4.438;2022-12-11T11:21:19;53.30;;;20.33;;
26080;SDS011;13991;51.174;4.438;2022-12-11T11:23:48;49.93;;;19.43;;
26080;SDS011;13991;51.174;4.438;2022-12-11T11:26:15;58.43;;;22.23;;
26080;SDS011;13991;51.174;4.438;2022-12-11T11:28:48;58.40;;;22.07;;
26080;SDS011;13991;51.174;4.438;2022-12-11T11:31:16;51.33;;;20.67;;
26080;SDS011;13991;51.174;4.438;2022-12-11T11:34:05;45.07;;;19.20;;
26080;SDS011;13991;51.174;4.438;2022-12-11T11:36:32;53.67;;;19.33;;
26080;SDS011;13991;51.174;4.438;2022-12-11T11:41:56;46.30;;;18.30;;
26080;SDS011;13991;51.174;4.438;2022-12-11T11:44:34;45.37;;;17.60;;
26080;SDS011;13991;51.174;4.438;2022-12-11T11:47:13;47.97;;;18.10;;
26080;SDS011;13991;51.174;4.438;2022-12-11T11:49:49;43.03;;;17.97;;
26080;SDS011;13991;51.174;4.438;2022-12-11T11:52:28;46.83;;;18.40;;
26080;SDS011;13991;51.174;4.438;2022-12-11T11:57:46;47.40;;;17.77;;
26080;SDS011;13991;51.174;4.438;2022-12-11T12:00:25;52.37;;;17.97;;
26080;SDS011;13991;51.174;4.438;2022-12-11T12:02:59;45.13;;;17.93;;
26080;SDS011;13991;51.174;4.438;2022-12-11T12:11:22;51.57;;;19.50;;
26080;SDS011;13991;51.174;4.438;2022-12-11T12:16:39;47.13;;;19.07;;
26080;SDS011;13991;51.174;4.438;2022-12-11T12:22:12;48.23;;;19.00;;
26080;SDS011;13991;51.174;4.438;2022-12-11T12:27:58;45.57;;;18.63;;
26080;SDS011;13991;51.174;4.438;2022-12-11T12:30:29;49.90;;;18.20;;
26080;SDS011;13991;51.174;4.438;2022-12-11T12:33:13;51.03;;;20.20;;
26080;SDS011;13991;51.174;4.438;2022-12-11T12:35:57;58.17;;;18.87;;
26080;SDS011;13991;51.174;4.438;2022-12-11T12:38:40;47.10;;;19.00;;
26080;SDS011;13991;51.174;4.438;2022-12-11T12:41:33;51.20;;;18.23;;
26080;SDS011;13991;51.174;4.438;2022-12-11T12:44:14;55.17;;;19.60;;
26080;SDS011;13991;51.174;4.438;2022-12-11T12:46:53;45.67;;;17.63;;
26080;SDS011;13991;51.174;4.438;2022-12-11T12:49:45;42.73;;;14.57;;
26080;SDS011;13991;51.174;4.438;2022-12-11T12:52:25;36.93;;;12.43;;
26080;SDS011;13991;51.174;4.438;2022-12-11T12:54:54;40.27;;;14.33;;
26080;SDS011;13991;51.174;4.438;2022-12-11T12:57:47;37.40;;;12.17;;
26080;SDS011;13991;51.174;4.438;2022-12-11T13:05:39;35.97;;;12.23;;
26080;SDS011;13991;51.174;4.438;2022-12-11T13:08:07;32.07;;;12.47;;
26080;SDS011;13991;51.174;4.438;2022-12-11T13:10:34;36.47;;;12.57;;
26080;SDS011;13991;51.174;4.438;2022-12-11T13:13:03;33.07;;;12.33;;
26080;SDS011;13991;51.174;4.438;2022-12-11T13:15:35;36.37;;;11.30;;
26080;SDS011;13991;51.174;4.438;2022-12-11T13:18:50;35.97;;;12.57;;
26080;SDS011;13991;51.174;4.438;2022-12-11T13:20:56;40.00;;;12.50;;
26080;SDS011;13991;51.174;4.438;2022-12-11T13:23:32;37.67;;;11.93;;
26080;SDS011;13991;51.174;4.438;2022-12-11T13:25:59;42.10;;;12.33;;
26080;SDS011;13991;51.174;4.438;2022-12-11T13:28:28;46.57;;;13.23;;
26080;SDS011;13991;51.174;4.438;2022-12-11T13:30:59;37.80;;;13.60;;
26080;SDS011;13991;51.174;4.438;2022-12-11T13:33:51;39.40;;;13.53;;
26080;SDS011;13991;51.174;4.438;2022-12-11T13:38:46;44.80;;;13.27;;
26080;SDS011;13991;51.174;4.438;2022-12-11T13:41:15;44.73;;;15.13;;
26080;SDS011;13991;51.174;4.438;2022-12-11T13:43:44;42.67;;;14.63;;
26080;SDS011;13991;51.174;4.438;2022-12-11T13:46:12;41.70;;;13.50;;
26080;SDS011;13991;51.174;4.438;2022-12-11T13:48:45;42.57;;;14.37;;
26080;SDS011;13991;51.174;4.438;2022-12-11T13:51:18;44.83;;;14.10;;
26080;SDS011;13991;51.174;4.438;2022-12-11T13:53:45;43.57;;;13.93;;
26080;SDS011;13991;51.174;4.438;2022-12-11T13:56:15;59.30;;;15.33;;
26080;SDS011;13991;51.174;4.438;2022-12-11T13:58:46;42.07;;;13.50;;
26080;SDS011;13991;51.174;4.438;2022-12-11T14:04:03;47.93;;;13.07;;
26080;SDS011;13991;51.174;4.438;2022-12-11T14:06:35;45.97;;;13.77;;
26080;SDS011;13991;51.174;4.438;2022-12-11T14:09:03;40.47;;;13.03;;
26080;SDS011;13991;51.174;4.438;2022-12-11T14:11:35;36.23;;;13.77;;
26080;SDS011;13991;51.174;4.438;2022-12-11T14:14:03;56.03;;;14.97;;
26080;SDS011;13991;51.174;4.438;2022-12-11T14:16:32;39.50;;;14.33;;
26080;SDS011;13991;51.174;4.438;2022-12-11T14:19:01;49.47;;;15.20;;
26080;SDS011;13991;51.174;4.438;2022-12-11T14:21:30;48.63;;;16.00;;
26080;SDS011;13991;51.174;4.438;2022-12-11T14:23:56;50.10;;;15.40;;
26080;SDS011;13991;51.174;4.438;2022-12-11T14:26:48;49.40;;;16.07;;
26080;SDS011;13991;51.174;4.438;2022-12-11T14:29:23;45.53;;;15.53;;
26080;SDS011;13991;51.174;4.438;2022-12-11T14:31:50;51.67;;;16.37;;
26080;SDS011;13991;51.174;4.438;2022-12-11T14:34:28;47.70;;;16.00;;
26080;SDS011;13991;51.174;4.438;2022-12-11T14:36:57;54.73;;;18.03;;
26080;SDS011;13991;51.174;4.438;2022-12-11T14:39:27;54.73;;;18.13;;
26080;SDS011;13991;51.174;4.438;2022-12-11T14:41:59;56.37;;;17.13;;
26080;SDS011;13991;51.174;4.438;2022-12-11T14:44:31;48.20;;;17.70;;
26080;SDS011;13991;51.174;4.438;2022-12-11T14:47:03;54.63;;;18.27;;
26080;SDS011;13991;51.174;4.438;2022-12-11T14:49:56;55.50;;;19.57;;
26080;SDS011;13991;51.174;4.438;2022-12-11T14:52:40;53.90;;;17.83;;
26080;SDS011;13991;51.174;4.438;2022-12-11T14:55:16;53.17;;;17.97;;
26080;SDS011;13991;51.174;4.438;2022-12-11T14:57:46;50.83;;;18.40;;
26080;SDS011;13991;51.174;4.438;2022-12-11T15:00:19;60.13;;;17.93;;
26080;SDS011;13991;51.174;4.438;2022-12-11T15:02:54;61.43;;;19.20;;
26080;SDS011;13991;51.174;4.438;2022-12-11T15:05:25;55.17;;;18.83;;
26080;SDS011;13991;51.174;4.438;2022-12-11T15:07:53;61.67;;;19.13;;
26080;SDS011;13991;51.174;4.438;2022-12-11T15:12:52;63.30;;;18.67;;
26080;SDS011;13991;51.174;4.438;2022-12-11T15:15:18;55.37;;;18.57;;
26080;SDS011;13991;51.174;4.438;2022-12-11T15:17:45;62.50;;;21.67;;
26080;SDS011;13991;51.174;4.438;2022-12-11T15:20:34;50.53;;;19.63;;
26080;SDS011;13991;51.174;4.438;2022-12-11T15:23:01;62.03;;;18.57;;
26080;SDS011;13991;51.174;4.438;2022-12-11T15:25:27;66.60;;;21.20;;
26080;SDS011;13991;51.174;4.438;2022-12-11T15:27:54;69.07;;;21.47;;
26080;SDS011;13991;51.174;4.438;2022-12-11T15:35:37;62.83;;;20.90;;
26080;SDS011;13991;51.174;4.438;2022-12-11T15:38:04;61.37;;;19.23;;
26080;SDS011;13991;51.174;4.438;2022-12-11T15:40:30;57.37;;;20.90;;
26080;SDS011;13991;51.174;4.438;2022-12-11T15:42:56;62.13;;;19.70;;
26080;SDS011;13991;51.174;4.438;2022-12-11T15:45:25;65.83;;;20.30;;
26080;SDS011;13991;51.174;4.438;2022-12-11T15:47:54;63.77;;;20.40;;
26080;SDS011;13991;51.174;4.438;2022-12-11T15:50:22;51.63;;;18.53;;
26080;SDS011;13991;51.174;4.438;2022-12-11T15:52:50;63.97;;;20.50;;